sensor_id;sensor_type;location;lat;lon;timestamp;P1;durP1;ratioP1;P2;durP2;ratioP2
727;SDS011;347;48.780;9.158;2022-10-24T00:00:00;8.30;;;7.90;;
727;SDS011;347;48.780;9.158;2022-10-24T00:02:26;8.10;;;7.80;;
727;SDS011;347;48.780;9.158;2022-10-24T00:04:52;7.90;;;7.60;;
727;SDS011;347;48.780;9.158;2022-10-24T00:07:17;8.77;;;8.27;;
727;SDS011;347;48.780;9.158;2022-10-24T00:09:43;7.40;;;7.20;;
727;SDS011;347;48.780;9.158;2022-10-24T00:12:08;7.60;;;7.30;;
727;SDS011;347;48.780;9.158;2022-10-24T00:14:34;7.23;;;6.97;;
727;SDS011;347;48.780;9.158;2022-10-24T00:17:01;13.63;;;8.77;;
727;SDS011;347;48.780;9.158;2022-10-24T00:19:27;8.47;;;7.87;;
727;SDS011;347;48.780;9.158;2022-10-24T00:21:52;9.10;;;8.30;;
727;SDS011;347;48.780;9.158;2022-10-24T00:24:18;9.00;;;8.63;;
727;SDS011;347;48.780;9.158;2022-10-24T00:26:44;8.80;;;8.30;;
727;SDS011;347;48.780;9.158;2022-10-24T00:29:09;9.13;;;8.63;;
727;SDS011;347;48.780;9.158;2022-10-24T00:31:35;8.50;;;8.10;;
727;SDS011;347;48.780;9.158;2022-10-24T00:34:01;8.80;;;8.40;;
727;SDS011;347;48.780;9.158;2022-10-24T00:36:27;8.73;;;8.03;;
727;SDS011;347;48.780;9.158;2022-10-24T00:38:53;8.13;;;7.73;;
727;SDS011;347;48.780;9.158;2022-10-24T00:41:21;9.60;;;8.67;;
727;SDS011;347;48.780;9.158;2022-10-24T00:43:49;8.00;;;7.50;;
727;SDS011;347;48.780;9.158;2022-10-24T00:46:15;10.17;;;9.50;;
727;SDS011;347;48.780;9.158;2022-10-24T00:48:47;8.43;;;8.00;;
727;SDS011;347;48.780;9.158;2022-10-24T00:51:20;8.77;;;8.47;;
727;SDS011;347;48.780;9.158;2022-10-24T00:53:55;9.80;;;8.80;;
727;SDS011;347;48.780;9.158;2022-10-24T00:56:25;9.03;;;8.40;;
727;SDS011;347;48.780;9.158;2022-10-24T00:58:55;8.30;;;7.90;;
727;SDS011;347;48.780;9.158;2022-10-24T01:01:24;8.60;;;8.10;;
727;SDS011;347;48.780;9.158;2022-10-24T01:03:50;8.50;;;8.03;;
727;SDS011;347;48.780;9.158;2022-10-24T01:06:27;8.33;;;7.97;;
727;SDS011;347;48.780;9.158;2022-10-24T01:23:03;9.70;;;8.90;;
727;SDS011;347;48.780;9.158;2022-10-24T01:31:10;9.10;;;8.70;;
727;SDS011;347;48.780;9.158;2022-10-24T01:33:43;9.43;;;8.67;;
727;SDS011;347;48.780;9.158;2022-10-24T01:36:17;9.20;;;8.70;;
727;SDS011;347;48.780;9.158;2022-10-24T01:38:52;8.80;;;8.30;;
727;SDS011;347;48.780;9.158;2022-10-24T01:41:25;9.07;;;8.57;;
727;SDS011;347;48.780;9.158;2022-10-24T01:46:49;10.03;;;9.37;;
727;SDS011;347;48.780;9.158;2022-10-24T01:49:19;10.20;;;9.20;;
727;SDS011;347;48.780;9.158;2022-10-24T01:51:47;9.30;;;8.70;;
727;SDS011;347;48.780;9.158;2022-10-24T01:54:16;9.73;;;9.00;;
727;SDS011;347;48.780;9.158;2022-10-24T01:56:42;9.80;;;9.20;;
727;SDS011;347;48.780;9.158;2022-10-24T02:05:00;10.17;;;9.20;;
727;SDS011;347;48.780;9.158;2022-10-24T02:07:52;10.37;;;9.50;;
727;SDS011;347;48.780;9.158;2022-10-24T02:10:21;9.57;;;9.17;;
727;SDS011;347;48.780;9.158;2022-10-24T02:12:53;9.90;;;9.37;;
727;SDS011;347;48.780;9.158;2022-10-24T02:15:26;10.27;;;9.37;;
727;SDS011;347;48.780;9.158;2022-10-24T02:17:55;10.07;;;9.67;;
727;SDS011;347;48.780;9.158;2022-10-24T02:20:23;9.43;;;8.73;;
727;SDS011;347;48.780;9.158;2022-10-24T02:23:25;9.33;;;8.80;;
727;SDS011;347;48.780;9.158;2022-10-24T02:26:31;10.00;;;9.23;;
727;SDS011;347;48.780;9.158;2022-10-24T02:29:03;9.60;;;9.00;;
727;SDS011;347;48.780;9.158;2022-10-24T02:31:37;9.77;;;9.27;;
727;SDS011;347;48.780;9.158;2022-10-24T02:34:07;9.67;;;9.20;;
727;SDS011;347;48.780;9.158;2022-10-24T02:36:35;9.73;;;9.03;;
727;SDS011;347;48.780;9.158;2022-10-24T02:39:03;9.53;;;9.10;;
727;SDS011;347;48.780;9.158;2022-10-24T02:41:34;9.60;;;9.20;;
727;SDS011;347;48.780;9.158;2022-10-24T02:44:03;11.47;;;10.70;;
727;SDS011;347;48.780;9.158;2022-10-24T02:46:29;9.60;;;9.00;;
727;SDS011;347;48.780;9.158;2022-10-24T02:48:58;10.40;;;9.50;;
727;SDS011;347;48.780;9.158;2022-10-24T02:51:27;10.17;;;9.53;;
727;SDS011;347;48.780;9.158;2022-10-24T02:53:56;10.90;;;10.10;;
727;SDS011;347;48.780;9.158;2022-10-24T02:56:22;10.50;;;10.00;;
727;SDS011;347;48.780;9.158;2022-10-24T02:58:48;10.23;;;9.63;;
727;SDS011;347;48.780;9.158;2022-10-24T03:01:13;10.83;;;10.10;;
727;SDS011;347;48.780;9.158;2022-10-24T03:03:39;9.50;;;8.97;;
727;SDS011;347;48.780;9.158;2022-10-24T03:06:05;10.10;;;9.30;;
727;SDS011;347;48.780;9.158;2022-10-24T03:08:31;10.20;;;9.60;;
727;SDS011;347;48.780;9.158;2022-10-24T03:10:56;11.17;;;10.60;;
727;SDS011;347;48.780;9.158;2022-10-24T03:13:22;10.93;;;10.00;;
727;SDS011;347;48.780;9.158;2022-10-24T03:15:48;10.10;;;9.70;;
727;SDS011;347;48.780;9.158;2022-10-24T03:18:13;10.10;;;9.70;;
727;SDS011;347;48.780;9.158;2022-10-24T03:20:39;10.30;;;9.80;;
727;SDS011;347;48.780;9.158;2022-10-24T03:23:05;10.83;;;10.23;;
727;SDS011;347;48.780;9.158;2022-10-24T03:25:31;10.70;;;10.00;;
727;SDS011;347;48.780;9.158;2022-10-24T03:27:57;11.37;;;10.67;;
727;SDS011;347;48.780;9.158;2022-10-24T03:30:23;11.03;;;10.50;;
727;SDS011;347;48.780;9.158;2022-10-24T03:32:49;11.23;;;10.47;;
727;SDS011;347;48.780;9.158;2022-10-24T03:35:14;11.57;;;10.77;;
727;SDS011;347;48.780;9.158;2022-10-24T03:37:41;11.00;;;10.23;;
727;SDS011;347;48.780;9.158;2022-10-24T03:40:07;11.67;;;10.77;;
727;SDS011;347;48.780;9.158;2022-10-24T03:42:34;10.87;;;10.07;;
727;SDS011;347;48.780;9.158;2022-10-24T03:45:00;10.10;;;9.50;;
727;SDS011;347;48.780;9.158;2022-10-24T03:47:25;10.20;;;9.60;;
727;SDS011;347;48.780;9.158;2022-10-24T03:49:51;10.63;;;10.03;;
727;SDS011;347;48.780;9.158;2022-10-24T03:52:17;9.87;;;9.53;;
727;SDS011;347;48.780;9.158;2022-10-24T03:54:43;10.30;;;9.87;;
727;SDS011;347;48.780;9.158;2022-10-24T03:57:08;10.17;;;9.37;;
727;SDS011;347;48.780;9.158;2022-10-24T03:59:35;11.30;;;10.67;;
727;SDS011;347;48.780;9.158;2022-10-24T04:02:01;11.60;;;10.40;;
727;SDS011;347;48.780;9.158;2022-10-24T04:04:27;11.63;;;10.83;;
727;SDS011;347;48.780;9.158;2022-10-24T04:06:53;11.27;;;10.77;;
727;SDS011;347;48.780;9.158;2022-10-24T04:09:19;12.80;;;11.90;;
727;SDS011;347;48.780;9.158;2022-10-24T04:11:45;11.40;;;10.63;;
727;SDS011;347;48.780;9.158;2022-10-24T04:14:11;11.63;;;10.90;;
727;SDS011;347;48.780;9.158;2022-10-24T04:16:37;12.00;;;11.13;;
727;SDS011;347;48.780;9.158;2022-10-24T04:19:03;10.73;;;10.23;;
727;SDS011;347;48.780;9.158;2022-10-24T04:21:28;11.60;;;10.90;;
727;SDS011;347;48.780;9.158;2022-10-24T04:23:54;11.13;;;10.17;;
727;SDS011;347;48.780;9.158;2022-10-24T04:26:20;10.93;;;10.27;;
727;SDS011;347;48.780;9.158;2022-10-24T04:28:46;12.10;;;11.10;;
727;SDS011;347;48.780;9.158;2022-10-24T04:31:12;11.90;;;10.80;;
727;SDS011;347;48.780;9.158;2022-10-24T04:33:38;15.63;;;10.20;;
727;SDS011;347;48.780;9.158;2022-10-24T04:36:04;11.67;;;10.93;;
727;SDS011;347;48.780;9.158;2022-10-24T04:38:30;11.80;;;10.73;;
727;SDS011;347;48.780;9.158;2022-10-24T04:40:56;11.43;;;10.73;;
727;SDS011;347;48.780;9.158;2022-10-24T04:43:23;11.33;;;10.67;;
727;SDS011;347;48.780;9.158;2022-10-24T04:45:50;10.50;;;9.90;;
727;SDS011;347;48.780;9.158;2022-10-24T04:48:15;11.77;;;11.03;;
727;SDS011;347;48.780;9.158;2022-10-24T04:50:42;11.10;;;10.43;;
727;SDS011;347;48.780;9.158;2022-10-24T04:53:08;12.07;;;10.93;;
727;SDS011;347;48.780;9.158;2022-10-24T04:55:35;10.40;;;9.90;;
727;SDS011;347;48.780;9.158;2022-10-24T04:58:00;10.60;;;9.90;;
727;SDS011;347;48.780;9.158;2022-10-24T05:00:27;12.33;;;9.63;;
727;SDS011;347;48.780;9.158;2022-10-24T05:02:53;11.80;;;10.73;;
727;SDS011;347;48.780;9.158;2022-10-24T05:05:19;11.63;;;11.00;;
727;SDS011;347;48.780;9.158;2022-10-24T05:07:45;13.37;;;11.90;;
727;SDS011;347;48.780;9.158;2022-10-24T05:10:11;12.23;;;11.13;;
727;SDS011;347;48.780;9.158;2022-10-24T05:12:38;11.37;;;10.60;;
727;SDS011;347;48.780;9.158;2022-10-24T05:15:04;11.50;;;10.70;;
727;SDS011;347;48.780;9.158;2022-10-24T05:17:30;10.77;;;10.23;;
727;SDS011;347;48.780;9.158;2022-10-24T05:19:56;11.83;;;10.80;;
727;SDS011;347;48.780;9.158;2022-10-24T05:22:22;11.50;;;10.90;;
727;SDS011;347;48.780;9.158;2022-10-24T05:24:48;11.90;;;11.20;;
727;SDS011;347;48.780;9.158;2022-10-24T05:27:14;12.30;;;11.40;;
727;SDS011;347;48.780;9.158;2022-10-24T05:29:40;11.27;;;10.67;;
727;SDS011;347;48.780;9.158;2022-10-24T05:32:05;11.27;;;10.67;;
727;SDS011;347;48.780;9.158;2022-10-24T05:34:31;11.03;;;10.23;;
727;SDS011;347;48.780;9.158;2022-10-24T05:36:57;12.40;;;10.90;;
727;SDS011;347;48.780;9.158;2022-10-24T05:39:23;11.07;;;10.47;;
727;SDS011;347;48.780;9.158;2022-10-24T05:41:48;11.13;;;10.73;;
727;SDS011;347;48.780;9.158;2022-10-24T05:44:14;11.00;;;10.50;;
727;SDS011;347;48.780;9.158;2022-10-24T05:46:40;11.50;;;10.00;;
727;SDS011;347;48.780;9.158;2022-10-24T05:49:05;10.83;;;10.17;;
727;SDS011;347;48.780;9.158;2022-10-24T05:51:31;11.67;;;11.00;;
727;SDS011;347;48.780;9.158;2022-10-24T05:53:57;11.30;;;10.40;;
727;SDS011;347;48.780;9.158;2022-10-24T05:56:24;10.27;;;9.87;;
727;SDS011;347;48.780;9.158;2022-10-24T05:58:49;12.77;;;11.70;;
727;SDS011;347;48.780;9.158;2022-10-24T06:01:15;11.20;;;10.40;;
727;SDS011;347;48.780;9.158;2022-10-24T06:03:41;10.47;;;9.97;;
727;SDS011;347;48.780;9.158;2022-10-24T06:06:07;11.30;;;10.30;;
727;SDS011;347;48.780;9.158;2022-10-24T06:08:34;10.57;;;9.57;;
727;SDS011;347;48.780;9.158;2022-10-24T06:11:01;10.03;;;9.20;;
727;SDS011;347;48.780;9.158;2022-10-24T06:13:28;11.17;;;10.27;;
727;SDS011;347;48.780;9.158;2022-10-24T06:15:53;10.63;;;9.70;;
727;SDS011;347;48.780;9.158;2022-10-24T06:18:19;12.03;;;9.03;;
727;SDS011;347;48.780;9.158;2022-10-24T06:20:45;8.27;;;7.53;;
727;SDS011;347;48.780;9.158;2022-10-24T06:23:10;9.20;;;8.33;;
727;SDS011;347;48.780;9.158;2022-10-24T06:25:38;9.20;;;7.90;;
727;SDS011;347;48.780;9.158;2022-10-24T06:28:05;8.23;;;7.90;;
727;SDS011;347;48.780;9.158;2022-10-24T06:30:31;8.43;;;7.80;;
727;SDS011;347;48.780;9.158;2022-10-24T06:32:58;8.17;;;7.77;;
727;SDS011;347;48.780;9.158;2022-10-24T06:35:24;8.37;;;7.77;;
727;SDS011;347;48.780;9.158;2022-10-24T06:37:49;12.43;;;8.97;;
727;SDS011;347;48.780;9.158;2022-10-24T06:40:16;8.77;;;8.20;;
727;SDS011;347;48.780;9.158;2022-10-24T06:42:41;8.00;;;7.50;;
727;SDS011;347;48.780;9.158;2022-10-24T06:45:08;8.30;;;7.67;;
727;SDS011;347;48.780;9.158;2022-10-24T06:47:34;8.37;;;7.80;;
727;SDS011;347;48.780;9.158;2022-10-24T06:50:00;8.30;;;7.70;;
727;SDS011;347;48.780;9.158;2022-10-24T06:52:26;8.40;;;7.63;;
727;SDS011;347;48.780;9.158;2022-10-24T06:54:52;8.00;;;7.40;;
727;SDS011;347;48.780;9.158;2022-10-24T06:57:17;8.17;;;7.23;;
727;SDS011;347;48.780;9.158;2022-10-24T06:59:43;7.30;;;7.00;;
727;SDS011;347;48.780;9.158;2022-10-24T07:02:12;8.90;;;8.20;;
727;SDS011;347;48.780;9.158;2022-10-24T07:04:38;8.83;;;8.00;;
727;SDS011;347;48.780;9.158;2022-10-24T07:07:04;7.93;;;7.63;;
727;SDS011;347;48.780;9.158;2022-10-24T07:09:29;10.10;;;8.33;;
727;SDS011;347;48.780;9.158;2022-10-24T07:11:55;9.37;;;7.47;;
727;SDS011;347;48.780;9.158;2022-10-24T07:14:21;8.87;;;8.03;;
727;SDS011;347;48.780;9.158;2022-10-24T07:16:47;7.87;;;7.37;;
727;SDS011;347;48.780;9.158;2022-10-24T07:19:12;7.83;;;7.33;;
727;SDS011;347;48.780;9.158;2022-10-24T07:21:38;9.30;;;8.40;;
727;SDS011;347;48.780;9.158;2022-10-24T07:24:04;8.30;;;7.50;;
727;SDS011;347;48.780;9.158;2022-10-24T07:26:30;8.27;;;7.63;;
727;SDS011;347;48.780;9.158;2022-10-24T07:28:57;8.40;;;7.57;;
727;SDS011;347;48.780;9.158;2022-10-24T07:31:25;8.03;;;7.53;;
727;SDS011;347;48.780;9.158;2022-10-24T07:33:53;8.07;;;7.53;;
727;SDS011;347;48.780;9.158;2022-10-24T07:36:20;8.30;;;7.70;;
727;SDS011;347;48.780;9.158;2022-10-24T07:38:49;9.00;;;8.10;;
727;SDS011;347;48.780;9.158;2022-10-24T07:41:16;9.43;;;8.70;;
727;SDS011;347;48.780;9.158;2022-10-24T07:43:42;8.90;;;8.33;;
727;SDS011;347;48.780;9.158;2022-10-24T07:46:10;8.87;;;8.33;;
727;SDS011;347;48.780;9.158;2022-10-24T07:48:37;9.30;;;8.80;;
727;SDS011;347;48.780;9.158;2022-10-24T07:51:06;9.07;;;8.37;;
727;SDS011;347;48.780;9.158;2022-10-24T07:53:34;8.70;;;7.83;;
727;SDS011;347;48.780;9.158;2022-10-24T07:56:00;17.57;;;8.50;;
727;SDS011;347;48.780;9.158;2022-10-24T07:58:26;8.67;;;7.63;;
727;SDS011;347;48.780;9.158;2022-10-24T08:00:52;8.83;;;8.20;;
727;SDS011;347;48.780;9.158;2022-10-24T08:03:17;8.57;;;7.93;;
727;SDS011;347;48.780;9.158;2022-10-24T08:05:43;7.97;;;7.27;;
727;SDS011;347;48.780;9.158;2022-10-24T08:08:09;8.57;;;8.07;;
727;SDS011;347;48.780;9.158;2022-10-24T08:10:35;7.80;;;7.40;;
727;SDS011;347;48.780;9.158;2022-10-24T08:13:01;7.73;;;7.13;;
727;SDS011;347;48.780;9.158;2022-10-24T08:15:27;7.77;;;7.40;;
727;SDS011;347;48.780;9.158;2022-10-24T08:17:53;8.23;;;7.20;;
727;SDS011;347;48.780;9.158;2022-10-24T08:20:19;6.80;;;6.50;;
727;SDS011;347;48.780;9.158;2022-10-24T08:22:45;8.13;;;7.67;;
727;SDS011;347;48.780;9.158;2022-10-24T08:25:11;9.03;;;8.17;;
727;SDS011;347;48.780;9.158;2022-10-24T08:27:38;7.33;;;6.73;;
727;SDS011;347;48.780;9.158;2022-10-24T08:30:05;6.63;;;6.33;;
727;SDS011;347;48.780;9.158;2022-10-24T08:32:31;7.23;;;6.60;;
727;SDS011;347;48.780;9.158;2022-10-24T08:34:57;7.20;;;6.87;;
727;SDS011;347;48.780;9.158;2022-10-24T08:37:23;7.20;;;6.70;;
727;SDS011;347;48.780;9.158;2022-10-24T08:39:49;7.50;;;6.90;;
727;SDS011;347;48.780;9.158;2022-10-24T08:42:14;8.00;;;7.30;;
727;SDS011;347;48.780;9.158;2022-10-24T08:44:43;7.73;;;7.30;;
727;SDS011;347;48.780;9.158;2022-10-24T08:49:45;7.70;;;7.30;;
727;SDS011;347;48.780;9.158;2022-10-24T08:53:04;9.37;;;8.30;;
727;SDS011;347;48.780;9.158;2022-10-24T08:55:28;8.83;;;8.00;;
727;SDS011;347;48.780;9.158;2022-10-24T08:58:02;8.20;;;7.57;;
727;SDS011;347;48.780;9.158;2022-10-24T09:00:30;7.57;;;7.17;;
727;SDS011;347;48.780;9.158;2022-10-24T09:03:19;7.40;;;7.07;;
727;SDS011;347;48.780;9.158;2022-10-24T09:05:53;7.37;;;6.70;;
727;SDS011;347;48.780;9.158;2022-10-24T09:08:35;6.50;;;6.10;;
727;SDS011;347;48.780;9.158;2022-10-24T09:14:13;7.97;;;7.23;;
727;SDS011;347;48.780;9.158;2022-10-24T09:16:40;7.67;;;7.10;;
727;SDS011;347;48.780;9.158;2022-10-24T09:19:17;7.80;;;7.23;;
727;SDS011;347;48.780;9.158;2022-10-24T09:21:45;7.40;;;6.80;;
727;SDS011;347;48.780;9.158;2022-10-24T09:27:08;6.40;;;6.10;;
727;SDS011;347;48.780;9.158;2022-10-24T09:29:55;7.47;;;6.93;;
727;SDS011;347;48.780;9.158;2022-10-24T09:32:26;7.63;;;6.93;;
727;SDS011;347;48.780;9.158;2022-10-24T09:34:57;7.63;;;6.60;;
727;SDS011;347;48.780;9.158;2022-10-24T09:37:34;9.30;;;7.30;;
727;SDS011;347;48.780;9.158;2022-10-24T09:40:06;8.27;;;6.90;;
727;SDS011;347;48.780;9.158;2022-10-24T09:42:55;7.27;;;6.83;;
727;SDS011;347;48.780;9.158;2022-10-24T09:45:50;8.33;;;7.20;;
727;SDS011;347;48.780;9.158;2022-10-24T09:48:29;7.30;;;6.87;;
727;SDS011;347;48.780;9.158;2022-10-24T09:51:08;7.07;;;6.77;;
727;SDS011;347;48.780;9.158;2022-10-24T09:56:39;7.40;;;6.90;;
727;SDS011;347;48.780;9.158;2022-10-24T10:01:50;7.13;;;6.73;;
727;SDS011;347;48.780;9.158;2022-10-24T10:04:16;7.33;;;6.83;;
727;SDS011;347;48.780;9.158;2022-10-24T10:06:44;7.30;;;6.90;;
727;SDS011;347;48.780;9.158;2022-10-24T10:09:15;7.13;;;6.50;;
727;SDS011;347;48.780;9.158;2022-10-24T10:11:56;7.17;;;6.77;;
727;SDS011;347;48.780;9.158;2022-10-24T10:14:24;7.97;;;7.57;;
727;SDS011;347;48.780;9.158;2022-10-24T10:17:02;8.50;;;6.80;;
727;SDS011;347;48.780;9.158;2022-10-24T10:19:31;8.43;;;7.67;;
727;SDS011;347;48.780;9.158;2022-10-24T10:22:21;8.20;;;7.70;;
727;SDS011;347;48.780;9.158;2022-10-24T10:24:51;8.77;;;8.00;;
727;SDS011;347;48.780;9.158;2022-10-24T10:27:25;7.50;;;7.20;;
727;SDS011;347;48.780;9.158;2022-10-24T10:41:44;8.60;;;8.20;;
727;SDS011;347;48.780;9.158;2022-10-24T10:49:27;8.23;;;7.83;;
727;SDS011;347;48.780;9.158;2022-10-24T10:51:57;8.10;;;7.60;;
727;SDS011;347;48.780;9.158;2022-10-24T10:57:34;9.10;;;8.50;;
727;SDS011;347;48.780;9.158;2022-10-24T11:00:14;8.67;;;8.30;;
727;SDS011;347;48.780;9.158;2022-10-24T11:03:01;9.87;;;9.30;;
727;SDS011;347;48.780;9.158;2022-10-24T11:08:43;8.93;;;8.53;;
727;SDS011;347;48.780;9.158;2022-10-24T11:16:35;9.33;;;8.73;;
727;SDS011;347;48.780;9.158;2022-10-24T11:19:04;9.13;;;8.70;;
727;SDS011;347;48.780;9.158;2022-10-24T11:21:36;8.20;;;7.63;;
727;SDS011;347;48.780;9.158;2022-10-24T11:24:12;8.40;;;7.90;;
727;SDS011;347;48.780;9.158;2022-10-24T11:26:42;7.83;;;7.53;;
727;SDS011;347;48.780;9.158;2022-10-24T11:31:55;8.60;;;8.13;;
727;SDS011;347;48.780;9.158;2022-10-24T11:34:34;8.40;;;8.10;;
727;SDS011;347;48.780;9.158;2022-10-24T11:37:09;7.40;;;7.10;;
727;SDS011;347;48.780;9.158;2022-10-24T11:47:45;9.07;;;8.57;;
727;SDS011;347;48.780;9.158;2022-10-24T11:58:56;8.80;;;8.30;;
727;SDS011;347;48.780;9.158;2022-10-24T12:20:19;9.00;;;8.60;;
727;SDS011;347;48.780;9.158;2022-10-24T12:22:47;9.40;;;9.00;;
727;SDS011;347;48.780;9.158;2022-10-24T12:27:44;9.57;;;9.07;;
727;SDS011;347;48.780;9.158;2022-10-24T12:30:21;9.33;;;8.60;;
727;SDS011;347;48.780;9.158;2022-10-24T12:32:50;8.73;;;8.37;;
727;SDS011;347;48.780;9.158;2022-10-24T12:35:33;9.37;;;8.87;;
727;SDS011;347;48.780;9.158;2022-10-24T12:41:06;8.90;;;8.43;;
727;SDS011;347;48.780;9.158;2022-10-24T12:49:48;8.80;;;8.60;;
727;SDS011;347;48.780;9.158;2022-10-24T12:52:49;9.37;;;8.97;;
727;SDS011;347;48.780;9.158;2022-10-24T12:57:55;8.27;;;8.03;;
727;SDS011;347;48.780;9.158;2022-10-24T13:00:26;8.10;;;7.80;;
727;SDS011;347;48.780;9.158;2022-10-24T13:03:03;8.60;;;8.30;;
727;SDS011;347;48.780;9.158;2022-10-24T13:13:30;8.43;;;7.93;;
727;SDS011;347;48.780;9.158;2022-10-24T13:16:23;8.60;;;8.20;;
727;SDS011;347;48.780;9.158;2022-10-24T13:21:43;8.37;;;8.10;;
727;SDS011;347;48.780;9.158;2022-10-24T13:26:41;8.77;;;8.47;;
727;SDS011;347;48.780;9.158;2022-10-24T13:29:12;8.43;;;8.07;;
727;SDS011;347;48.780;9.158;2022-10-24T13:31:45;8.17;;;7.87;;
727;SDS011;347;48.780;9.158;2022-10-24T13:39:50;9.40;;;9.00;;
727;SDS011;347;48.780;9.158;2022-10-24T13:42:36;9.30;;;8.90;;
727;SDS011;347;48.780;9.158;2022-10-24T13:45:21;8.90;;;8.60;;
727;SDS011;347;48.780;9.158;2022-10-24T13:47:52;9.30;;;8.93;;
727;SDS011;347;48.780;9.158;2022-10-24T13:50:33;9.40;;;8.90;;
727;SDS011;347;48.780;9.158;2022-10-24T13:53:03;9.10;;;8.80;;
727;SDS011;347;48.780;9.158;2022-10-24T13:55:43;10.30;;;9.90;;
727;SDS011;347;48.780;9.158;2022-10-24T13:58:16;9.47;;;9.07;;
727;SDS011;347;48.780;9.158;2022-10-24T14:00:48;9.23;;;8.93;;
727;SDS011;347;48.780;9.158;2022-10-24T14:03:22;9.07;;;8.57;;
727;SDS011;347;48.780;9.158;2022-10-24T14:05:54;10.63;;;10.13;;
727;SDS011;347;48.780;9.158;2022-10-24T14:10:58;9.33;;;9.03;;
727;SDS011;347;48.780;9.158;2022-10-24T14:13:26;9.77;;;9.27;;
727;SDS011;347;48.780;9.158;2022-10-24T14:15:59;10.90;;;10.17;;
727;SDS011;347;48.780;9.158;2022-10-24T14:18:27;9.70;;;9.30;;
727;SDS011;347;48.780;9.158;2022-10-24T14:20:56;9.83;;;9.43;;
727;SDS011;347;48.780;9.158;2022-10-24T14:23:29;9.00;;;8.70;;
727;SDS011;347;48.780;9.158;2022-10-24T14:26:00;10.20;;;9.63;;
727;SDS011;347;48.780;9.158;2022-10-24T14:28:35;8.90;;;8.60;;
727;SDS011;347;48.780;9.158;2022-10-24T14:31:06;9.50;;;9.00;;
727;SDS011;347;48.780;9.158;2022-10-24T14:33:43;9.70;;;9.13;;
727;SDS011;347;48.780;9.158;2022-10-24T14:36:12;10.03;;;9.40;;
727;SDS011;347;48.780;9.158;2022-10-24T14:38:38;8.57;;;8.27;;
727;SDS011;347;48.780;9.158;2022-10-24T14:41:06;9.20;;;8.70;;
727;SDS011;347;48.780;9.158;2022-10-24T14:43:36;8.20;;;8.00;;
727;SDS011;347;48.780;9.158;2022-10-24T14:48:37;11.87;;;11.17;;
727;SDS011;347;48.780;9.158;2022-10-24T14:53:38;8.80;;;8.40;;
727;SDS011;347;48.780;9.158;2022-10-24T14:56:06;9.90;;;9.47;;
727;SDS011;347;48.780;9.158;2022-10-24T14:58:48;9.33;;;8.90;;
727;SDS011;347;48.780;9.158;2022-10-24T15:01:16;9.13;;;8.83;;
727;SDS011;347;48.780;9.158;2022-10-24T15:03:53;8.73;;;8.33;;
727;SDS011;347;48.780;9.158;2022-10-24T15:06:24;9.70;;;9.30;;
727;SDS011;347;48.780;9.158;2022-10-24T15:11:39;8.70;;;8.40;;
727;SDS011;347;48.780;9.158;2022-10-24T15:17:17;9.00;;;8.67;;
727;SDS011;347;48.780;9.158;2022-10-24T15:19:53;9.07;;;8.77;;
727;SDS011;347;48.780;9.158;2022-10-24T15:24:57;9.37;;;8.33;;
727;SDS011;347;48.780;9.158;2022-10-24T15:27:26;9.10;;;8.60;;
727;SDS011;347;48.780;9.158;2022-10-24T15:29:54;8.80;;;8.50;;
727;SDS011;347;48.780;9.158;2022-10-24T15:32:19;9.20;;;8.80;;
727;SDS011;347;48.780;9.158;2022-10-24T15:34:45;8.80;;;8.40;;
727;SDS011;347;48.780;9.158;2022-10-24T15:37:18;9.30;;;9.00;;
727;SDS011;347;48.780;9.158;2022-10-24T15:39:46;8.80;;;8.30;;
727;SDS011;347;48.780;9.158;2022-10-24T15:42:12;9.20;;;8.80;;
727;SDS011;347;48.780;9.158;2022-10-24T15:44:38;8.77;;;8.37;;
727;SDS011;347;48.780;9.158;2022-10-24T15:47:03;9.50;;;8.90;;
727;SDS011;347;48.780;9.158;2022-10-24T15:49:29;9.33;;;9.03;;
727;SDS011;347;48.780;9.158;2022-10-24T15:51:55;9.17;;;8.77;;
727;SDS011;347;48.780;9.158;2022-10-24T15:54:23;8.60;;;8.27;;
727;SDS011;347;48.780;9.158;2022-10-24T15:56:51;9.37;;;8.97;;
727;SDS011;347;48.780;9.158;2022-10-24T15:59:17;9.13;;;8.63;;
727;SDS011;347;48.780;9.158;2022-10-24T16:01:45;9.87;;;9.03;;
727;SDS011;347;48.780;9.158;2022-10-24T16:04:16;9.23;;;8.93;;
727;SDS011;347;48.780;9.158;2022-10-24T16:06:42;10.00;;;9.30;;
727;SDS011;347;48.780;9.158;2022-10-24T16:09:21;9.33;;;9.03;;
727;SDS011;347;48.780;9.158;2022-10-24T16:11:51;9.57;;;9.07;;
727;SDS011;347;48.780;9.158;2022-10-24T16:14:18;8.83;;;8.53;;
727;SDS011;347;48.780;9.158;2022-10-24T16:16:44;9.13;;;8.83;;
727;SDS011;347;48.780;9.158;2022-10-24T16:19:10;9.20;;;8.90;;
727;SDS011;347;48.780;9.158;2022-10-24T16:21:37;9.40;;;9.00;;
727;SDS011;347;48.780;9.158;2022-10-24T16:24:05;9.30;;;8.90;;
727;SDS011;347;48.780;9.158;2022-10-24T16:26:31;9.30;;;9.00;;
727;SDS011;347;48.780;9.158;2022-10-24T16:28:58;9.60;;;9.10;;
727;SDS011;347;48.780;9.158;2022-10-24T16:31:23;9.67;;;9.17;;
727;SDS011;347;48.780;9.158;2022-10-24T16:33:49;8.80;;;8.50;;
727;SDS011;347;48.780;9.158;2022-10-24T16:36:16;10.10;;;9.60;;
727;SDS011;347;48.780;9.158;2022-10-24T16:38:42;9.70;;;9.30;;
727;SDS011;347;48.780;9.158;2022-10-24T16:41:19;10.23;;;9.70;;
727;SDS011;347;48.780;9.158;2022-10-24T16:43:47;9.63;;;9.33;;
727;SDS011;347;48.780;9.158;2022-10-24T16:46:14;9.80;;;9.30;;
727;SDS011;347;48.780;9.158;2022-10-24T16:48:41;10.00;;;9.30;;
727;SDS011;347;48.780;9.158;2022-10-24T16:51:08;9.00;;;8.60;;
727;SDS011;347;48.780;9.158;2022-10-24T16:53:37;9.40;;;9.00;;
727;SDS011;347;48.780;9.158;2022-10-24T16:56:03;9.80;;;9.40;;
727;SDS011;347;48.780;9.158;2022-10-24T16:58:29;10.90;;;10.20;;
727;SDS011;347;48.780;9.158;2022-10-24T17:01:05;9.00;;;8.50;;
727;SDS011;347;48.780;9.158;2022-10-24T17:03:33;8.70;;;8.40;;
727;SDS011;347;48.780;9.158;2022-10-24T17:05:59;9.30;;;8.80;;
727;SDS011;347;48.780;9.158;2022-10-24T17:08:25;10.40;;;9.70;;
727;SDS011;347;48.780;9.158;2022-10-24T17:10:54;9.20;;;8.90;;
727;SDS011;347;48.780;9.158;2022-10-24T17:13:21;9.70;;;9.30;;
727;SDS011;347;48.780;9.158;2022-10-24T17:15:47;9.53;;;9.03;;
727;SDS011;347;48.780;9.158;2022-10-24T17:18:13;9.73;;;9.33;;
727;SDS011;347;48.780;9.158;2022-10-24T17:20:42;8.63;;;8.37;;
727;SDS011;347;48.780;9.158;2022-10-24T17:23:12;9.20;;;8.60;;
727;SDS011;347;48.780;9.158;2022-10-24T17:25:40;9.37;;;8.87;;
727;SDS011;347;48.780;9.158;2022-10-24T17:28:06;9.13;;;8.73;;
727;SDS011;347;48.780;9.158;2022-10-24T17:30:32;10.23;;;9.53;;
727;SDS011;347;48.780;9.158;2022-10-24T17:32:58;10.57;;;9.47;;
727;SDS011;347;48.780;9.158;2022-10-24T17:35:24;9.70;;;9.30;;
727;SDS011;347;48.780;9.158;2022-10-24T17:40:49;9.90;;;9.20;;
727;SDS011;347;48.780;9.158;2022-10-24T17:45:44;9.83;;;9.23;;
727;SDS011;347;48.780;9.158;2022-10-24T17:48:10;9.93;;;9.43;;
727;SDS011;347;48.780;9.158;2022-10-24T17:50:36;10.97;;;10.30;;
727;SDS011;347;48.780;9.158;2022-10-24T17:53:01;9.77;;;9.27;;
727;SDS011;347;48.780;9.158;2022-10-24T17:55:27;9.90;;;9.50;;
727;SDS011;347;48.780;9.158;2022-10-24T17:57:53;9.77;;;9.27;;
727;SDS011;347;48.780;9.158;2022-10-24T18:00:19;9.63;;;9.23;;
727;SDS011;347;48.780;9.158;2022-10-24T18:05:11;8.83;;;8.53;;
727;SDS011;347;48.780;9.158;2022-10-24T18:07:37;10.20;;;9.60;;
727;SDS011;347;48.780;9.158;2022-10-24T18:10:03;9.43;;;9.03;;
727;SDS011;347;48.780;9.158;2022-10-24T18:12:31;9.77;;;8.80;;
727;SDS011;347;48.780;9.158;2022-10-24T18:14:59;11.97;;;8.23;;
727;SDS011;347;48.780;9.158;2022-10-24T18:17:26;8.90;;;8.60;;
727;SDS011;347;48.780;9.158;2022-10-24T18:19:52;7.73;;;7.43;;
727;SDS011;347;48.780;9.158;2022-10-24T18:22:18;8.57;;;8.07;;
727;SDS011;347;48.780;9.158;2022-10-24T18:24:43;7.73;;;7.43;;
727;SDS011;347;48.780;9.158;2022-10-24T18:27:09;8.00;;;7.70;;
727;SDS011;347;48.780;9.158;2022-10-24T18:29:35;7.73;;;7.43;;
727;SDS011;347;48.780;9.158;2022-10-24T18:32:00;7.43;;;7.07;;
727;SDS011;347;48.780;9.158;2022-10-24T18:34:26;8.13;;;7.57;;